Smorumnedre, Denmark
Current Conditions -  °F | °C
As of 3:20 PM on Wednesday 28 Jan 2015 (Local Time) from EKRK Reporting Station
Broken Clouds Broken Clouds  
Wind Chill: 30°   Ceiling: 2100
Heat Index: 39°   Visibility: 6mi
Dew Point: 36°   Wind: 20mph
Humidity: 87%   Direction: 190°S
Pressure: 29.29"   Gusts: NA
Location:  55.74°N, 12.3°E
Report Text: EKRK 281420Z AUTO 19017KT 9000NDV FEW012/// SCT017///BKN021/// BKN031/// 04/02 Q0992
Loading
Personal Weather Stations






























Interactive Weather Map New forecast layout! Learn more

10-Day Weather Forecast

Advertisements
Track Severe Weather on mobile